• Join FlightAware (Why Join?)
  • Login
  • US Flag 
10:11PM EDT


 

Airport Tracker/Info


-or-


 

Live Flight TrackerFlight Track Log ✈ GRY4 ✈ 13-Jun-2013 ✈ KIAG - KALB

Flight Track Log - Related Links

Times and Time Zones

All times are in EDT time to prevent confusion due to time zone crossing. See the GRY4 flight status page for this flight to view local times or setup timezone preferences in your user account.

Time Position Orientation Groundspeed Altitude Reporting Facility
EDT Latitude Longitude Course Direction KTS MPH feet Rate Location/Type
04:56PM 43.1167 -78.9167 56° Northeast 125 144 1,200  Level Buffalo TRACON
04:57PM 43.1333 -78.8833 56° Northeast 125 144 3,900 2,040 Climbing Buffalo TRACON
04:58PM 43.1619 -78.8414 47° Northeast 146 168 6,000 2,040 Climbing Cleveland Center
04:59PM 43.1631 -78.7786 89° East 141 162 8,300 1,800 Climbing Cleveland Center
05:00PM 43.1600 -78.7161 94° East 150 173 9,700 1,440 Climbing Cleveland Center
05:01PM 43.1567 -78.6422 94° East 176 203 11,200 1,560 Climbing Cleveland Center
05:02PM 43.1514 -78.5742 96° East 176 203 12,900 1,560 Climbing Cleveland Center
05:03PM 43.1458 -78.4975 96° East 181 208 14,400 1,440 Climbing Cleveland Center
05:04PM 43.1425 -78.4236 94° East 186 214 15,900 1,320 Climbing Cleveland Center
05:05PM 43.1367 -78.3386 95° East 203 234 17,100 1,320 Climbing Cleveland Center
05:06PM 43.1286 -78.2533 97° East 210 242 18,600 960 Climbing Cleveland Center
05:07PM 43.1247 -78.1653 93° East 222 255 19,100 180 Climbing Cleveland Center
05:08PM 43.1164 -78.0633 96° East 244 281 19,000 -60 Descending Cleveland Center
05:09PM 43.1119 -77.9583 93° East 257 296 19,000  Level Cleveland Center
05:10PM 43.1033 -77.8533 96° East 267 307 19,000  Level Cleveland Center
05:11PM 43.0944 -77.7486 97° East 273 314 19,000  Level Cleveland Center
05:12PM 43.0878 -77.6464 95° East 273 314 19,000  Level Cleveland Center
05:13PM 43.0808 -77.5389 95° East 273 314 19,000  Level Cleveland Center
05:14PM 43.0717 -77.4342 97° East 273 314 19,000  Level Cleveland Center
05:15PM 43.0647 -77.3292 95° East 273 314 19,000  Level Cleveland Center
05:16PM 43.0575 -77.2217 95° East 273 314 19,000  Level Cleveland Center
05:19PM 43.0389 -76.9917 96° East 273 314 19,000  Level Boston Center
05:20PM 43.0303 -76.8917 97° East 273 314 19,000  Level Boston Center
05:21PM 43.0239 -76.7917 95° East 273 314 19,000  Level Boston Center
05:22PM 43.0150 -76.6917 97° East 273 314 19,000  Level Boston Center
05:23PM 43.0067 -76.5803 96° East 273 314 19,000  Level Boston Center
05:24PM 43.0000 -76.4775 95° East 273 314 19,000  Level Boston Center
05:25PM 42.9931 -76.3778 95° East 273 314 19,000  Level Boston Center
05:26PM 42.9839 -76.2806 97° East 273 314 19,000 -60 Level Boston Center
05:27PM 42.9767 -76.1836 96° East 267 307 18,900  Descending Boston Center
05:28PM 42.9653 -76.0864 99° East 256 295 19,000  Climbing Boston Center
05:29PM 42.9600 -75.9867 94° East 256 295 19,000  Level Boston Center
05:30PM 42.9506 -75.8869 97° East 262 302 19,000  Level Boston Center
05:31PM 42.9428 -75.7958 97° East 262 302 19,000  Level Boston Center
05:32PM 42.9311 -75.6986 99° East 262 302 19,000  Level Boston Center
05:33PM 42.9233 -75.6017 96° East 257 296 19,000  Level Boston Center
05:34PM 42.9156 -75.5022 96° East 257 296 19,000 -240 Level Boston Center
05:35PM 42.9058 -75.4025 98° East 257 296 18,600 -780 Descending Boston Center
05:36PM 42.8961 -75.2942 97° East 268 308 17,500 -1,080 Descending Boston Center
05:37PM 42.8861 -75.1861 97° East 281 323 16,500 -960 Descending Boston Center
05:38PM 42.8744 -75.0722 98° East 291 335 15,600 -780 Descending Boston Center
05:39PM 42.8664 -74.9669 96° East 291 335 15,000 -660 Descending Boston Center
05:39PM 42.8558 -74.8789 99° East 283 326 14,500 -600 Descending Boston Center
05:40PM 42.8542 -74.8589 96° East 291 335 14,400 -600 Descending Boston Center
05:40PM 42.8453 -74.7736 98° East 281 323 13,900 -600 Descending Boston Center
05:41PM 42.8419 -74.7422 98° East 291 335 13,800 -780 Descending Boston Center
05:41PM 42.8347 -74.6769 99° East 279 321 13,200 -1,020 Descending Boston Center
05:42PM 42.8336 -74.6344 92° East 286 329 12,800 -1,560 Descending Boston Center
05:42PM 42.8264 -74.5775 100° East 288 331 11,800 -1,440 Descending Boston Center
05:43PM 42.8231 -74.5264 95° East 286 329 11,400 -1,020 Descending Boston Center
05:43PM 42.8033 -74.4747 117° Southeast 291 335 10,800 -1,140 Descending Boston Center
05:44PM 42.7872 -74.4289 116° Southeast 281 323 10,300 -1,500 Descending Boston Center
05:44PM 42.7675 -74.3747 116° Southeast 289 333 9,300 -1,620 Descending Boston Center
05:45PM 42.7514 -74.3344 119° Southeast 286 329 8,700 -1,380 Descending Boston Center
05:45PM 42.7356 -74.2889 115° Southeast 260 299 7,900 -1,320 Descending Boston Center
05:46PM 42.7217 -74.2489 115° Southeast 266 306 7,400 -1,200 Descending Boston Center
05:46PM 42.7056 -74.2089 119° Southeast 220 253 6,700 -1,320 Descending Boston Center
05:47PM 42.6894 -74.1744 122° Southeast 240 276 6,100 -1,320 Descending Boston Center
05:47PM 42.6589 -74.1283 132° Southeast 230 265 5,300 -1,140 Descending Boston Center
05:48PM 42.6447 -74.1025 127° Southeast 229 264 4,800 -1,020 Descending Boston Center
05:48PM 42.6200 -74.0653 132° Southeast 226 260 4,300 -720 Descending Boston Center
05:49PM 42.6017 -74.0367 131° Southeast 223 257 4,100 -300 Descending Boston Center
05:49PM 42.5878 -74.0025 119° Southeast 209 241 4,000 -120 Descending Boston Center
05:50PM 42.5839 -73.9742 101° East 208 239 4,000 -240 Level Boston Center
05:50PM 42.5761 -73.9372 106° East 167 192 3,800 -600 Descending Boston Center
05:51PM 42.5744 -73.9033 94° East 177 204 3,400 -720 Descending Boston Center
05:51PM 42.5686 -73.8694 103° East 171 197 3,100 -420 Descending Boston Center
05:52PM 42.5669 -73.8383 94° East 172 198 3,000 -300 Descending Boston Center
05:52PM 42.5817 -73.8161 48° Northeast 176 203 2,800 -600 Descending Boston Center
05:53PM 42.6131 -73.8056 14° North 137 158 2,300 -600 Descending Boston Center
05:53PM 42.6319 -73.8031 North 191 220 2,200 -600 Descending Boston Center
05:54PM 42.6797 -73.8042 359° North 167 192 1,500 -780 Descending Boston Center
05:55PM 42.7256 -73.8053 359° North 129 148 600 -840 Descending Boston Center